sensor_id;sensor_type;location;lat;lon;timestamp;temperature;humidity
51825;DHT22;37879;52.986;6.282;2024-03-08T00:02:17;1.50;99.90
51825;DHT22;37879;52.986;6.282;2024-03-08T00:07:10;1.50;99.90
51825;DHT22;37879;52.986;6.282;2024-03-08T00:09:36;1.40;99.90
51825;DHT22;37879;52.986;6.282;2024-03-08T00:12:02;1.40;99.90
51825;DHT22;37879;52.986;6.282;2024-03-08T00:14:27;1.40;99.90
51825;DHT22;37879;52.986;6.282;2024-03-08T00:16:53;1.40;99.90
51825;DHT22;37879;52.986;6.282;2024-03-08T00:19:20;2.70;99.90
51825;DHT22;37879;52.986;6.282;2024-03-08T00:21:46;1.30;99.90
51825;DHT22;37879;52.986;6.282;2024-03-08T00:24:12;2.00;99.90
51825;DHT22;37879;52.986;6.282;2024-03-08T00:26:37;0.60;99.90
51825;DHT22;37879;52.986;6.282;2024-03-08T00:29:03;2.00;99.90
51825;DHT22;37879;52.986;6.282;2024-03-08T00:31:29;1.30;99.90
51825;DHT22;37879;52.986;6.282;2024-03-08T00:33:56;1.30;99.90
51825;DHT22;37879;52.986;6.282;2024-03-08T00:36:22;1.20;99.90
51825;DHT22;37879;52.986;6.282;2024-03-08T00:38:48;1.20;99.90
51825;DHT22;37879;52.986;6.282;2024-03-08T00:41:14;2.80;99.90
51825;DHT22;37879;52.986;6.282;2024-03-08T00:43:39;1.20;99.90
51825;DHT22;37879;52.986;6.282;2024-03-08T00:46:05;1.30;99.90
51825;DHT22;37879;52.986;6.282;2024-03-08T00:48:30;1.20;99.90
51825;DHT22;37879;52.986;6.282;2024-03-08T00:50:56;1.20;99.90
51825;DHT22;37879;52.986;6.282;2024-03-08T00:53:22;2.30;99.90
51825;DHT22;37879;52.986;6.282;2024-03-08T00:55:48;2.50;99.90
51825;DHT22;37879;52.986;6.282;2024-03-08T00:58:14;1.10;99.90
51825;DHT22;37879;52.986;6.282;2024-03-08T01:00:40;1.10;99.90
51825;DHT22;37879;52.986;6.282;2024-03-08T01:03:05;1.20;99.90
51825;DHT22;37879;52.986;6.282;2024-03-08T01:05:32;1.10;99.90
51825;DHT22;37879;52.986;6.282;2024-03-08T01:07:58;1.10;99.90
51825;DHT22;37879;52.986;6.282;2024-03-08T01:10:23;2.40;99.90
51825;DHT22;37879;52.986;6.282;2024-03-08T01:12:49;3.40;99.90
51825;DHT22;37879;52.986;6.282;2024-03-08T01:15:20;1.10;99.90
51825;DHT22;37879;52.986;6.282;2024-03-08T01:17:45;1.10;99.90
51825;DHT22;37879;52.986;6.282;2024-03-08T01:20:11;1.10;99.90
51825;DHT22;37879;52.986;6.282;2024-03-08T01:22:38;1.10;99.90
51825;DHT22;37879;52.986;6.282;2024-03-08T01:25:04;1.10;99.90
51825;DHT22;37879;52.986;6.282;2024-03-08T01:27:30;1.00;99.90
51825;DHT22;37879;52.986;6.282;2024-03-08T01:29:56;1.00;99.90
51825;DHT22;37879;52.986;6.282;2024-03-08T01:32:23;1.00;99.90
51825;DHT22;37879;52.986;6.282;2024-03-08T01:34:49;1.00;99.90
51825;DHT22;37879;52.986;6.282;2024-03-08T01:37:15;1.00;99.90
51825;DHT22;37879;52.986;6.282;2024-03-08T01:39:40;1.10;99.90
51825;DHT22;37879;52.986;6.282;2024-03-08T01:42:06;1.00;99.90
51825;DHT22;37879;52.986;6.282;2024-03-08T01:44:32;1.00;99.90
51825;DHT22;37879;52.986;6.282;2024-03-08T01:46:58;1.00;99.90
51825;DHT22;37879;52.986;6.282;2024-03-08T01:49:25;2.20;99.90
51825;DHT22;37879;52.986;6.282;2024-03-08T01:51:52;1.40;99.90
51825;DHT22;37879;52.986;6.282;2024-03-08T01:54:18;0.90;99.90
51825;DHT22;37879;52.986;6.282;2024-03-08T01:56:45;0.80;99.90
51825;DHT22;37879;52.986;6.282;2024-03-08T01:59:12;0.90;99.90
51825;DHT22;37879;52.986;6.282;2024-03-08T02:01:38;0.90;99.90
51825;DHT22;37879;52.986;6.282;2024-03-08T02:04:03;0.90;99.90
51825;DHT22;37879;52.986;6.282;2024-03-08T02:06:31;0.90;99.90
51825;DHT22;37879;52.986;6.282;2024-03-08T02:08:57;0.90;99.90
51825;DHT22;37879;52.986;6.282;2024-03-08T02:11:23;0.90;99.90
51825;DHT22;37879;52.986;6.282;2024-03-08T02:13:49;1.50;99.90
51825;DHT22;37879;52.986;6.282;2024-03-08T02:16:21;1.10;99.90
51825;DHT22;37879;52.986;6.282;2024-03-08T02:18:47;1.10;99.90
51825;DHT22;37879;52.986;6.282;2024-03-08T02:21:12;0.90;99.90
51825;DHT22;37879;52.986;6.282;2024-03-08T02:23:40;0.90;99.90
51825;DHT22;37879;52.986;6.282;2024-03-08T02:26:05;0.80;99.90
51825;DHT22;37879;52.986;6.282;2024-03-08T02:28:33;0.90;99.90
51825;DHT22;37879;52.986;6.282;2024-03-08T02:30:59;1.10;99.90
51825;DHT22;37879;52.986;6.282;2024-03-08T02:33:27;0.80;99.90
51825;DHT22;37879;52.986;6.282;2024-03-08T02:35:52;0.80;99.90
51825;DHT22;37879;52.986;6.282;2024-03-08T02:38:20;2.40;99.90
51825;DHT22;37879;52.986;6.282;2024-03-08T02:40:47;0.80;99.90
51825;DHT22;37879;52.986;6.282;2024-03-08T02:43:14;0.80;99.90
51825;DHT22;37879;52.986;6.282;2024-03-08T02:45:47;0.70;99.90
51825;DHT22;37879;52.986;6.282;2024-03-08T02:48:14;1.80;99.90
51825;DHT22;37879;52.986;6.282;2024-03-08T02:50:40;0.70;99.90
51825;DHT22;37879;52.986;6.282;2024-03-08T02:53:08;1.30;99.90
51825;DHT22;37879;52.986;6.282;2024-03-08T02:55:34;0.60;99.90
51825;DHT22;37879;52.986;6.282;2024-03-08T02:58:02;2.20;99.90
51825;DHT22;37879;52.986;6.282;2024-03-08T03:00:29;0.80;99.90
51825;DHT22;37879;52.986;6.282;2024-03-08T03:02:56;0.60;99.90
51825;DHT22;37879;52.986;6.282;2024-03-08T03:05:23;2.80;99.90
51825;DHT22;37879;52.986;6.282;2024-03-08T03:07:49;0.60;99.90
51825;DHT22;37879;52.986;6.282;2024-03-08T03:10:19;0.60;99.90
51825;DHT22;37879;52.986;6.282;2024-03-08T03:12:45;0.60;99.90
51825;DHT22;37879;52.986;6.282;2024-03-08T03:15:12;1.50;99.90
51825;DHT22;37879;52.986;6.282;2024-03-08T03:17:39;0.40;99.90
51825;DHT22;37879;52.986;6.282;2024-03-08T03:20:08;0.50;99.90
51825;DHT22;37879;52.986;6.282;2024-03-08T03:22:40;0.60;99.90
51825;DHT22;37879;52.986;6.282;2024-03-08T03:25:07;0.50;99.90
51825;DHT22;37879;52.986;6.282;2024-03-08T03:27:33;0.50;99.90
51825;DHT22;37879;52.986;6.282;2024-03-08T03:29:59;0.60;99.90
51825;DHT22;37879;52.986;6.282;2024-03-08T03:32:44;0.50;99.90
51825;DHT22;37879;52.986;6.282;2024-03-08T03:35:16;0.50;99.90
51825;DHT22;37879;52.986;6.282;2024-03-08T03:37:42;0.70;99.90
51825;DHT22;37879;52.986;6.282;2024-03-08T03:40:11;0.40;99.90
51825;DHT22;37879;52.986;6.282;2024-03-08T03:45:05;0.40;99.90
51825;DHT22;37879;52.986;6.282;2024-03-08T03:47:31;0.40;99.90
51825;DHT22;37879;52.986;6.282;2024-03-08T03:49:56;0.40;99.90
51825;DHT22;37879;52.986;6.282;2024-03-08T03:52:27;0.30;99.90
51825;DHT22;37879;52.986;6.282;2024-03-08T03:54:53;0.40;99.90
51825;DHT22;37879;52.986;6.282;2024-03-08T03:57:18;0.30;99.90
51825;DHT22;37879;52.986;6.282;2024-03-08T03:59:45;0.40;99.90
51825;DHT22;37879;52.986;6.282;2024-03-08T04:02:13;0.40;99.90
51825;DHT22;37879;52.986;6.282;2024-03-08T04:04:38;0.20;99.90
51825;DHT22;37879;52.986;6.282;2024-03-08T04:07:04;0.30;99.90
51825;DHT22;37879;52.986;6.282;2024-03-08T04:09:30;0.20;99.90
51825;DHT22;37879;52.986;6.282;2024-03-08T04:11:56;0.30;99.90
51825;DHT22;37879;52.986;6.282;2024-03-08T04:14:23;0.30;99.90
51825;DHT22;37879;52.986;6.282;2024-03-08T04:16:48;1.80;99.90
51825;DHT22;37879;52.986;6.282;2024-03-08T04:19:14;0.20;99.90
51825;DHT22;37879;52.986;6.282;2024-03-08T04:21:40;0.30;99.90
51825;DHT22;37879;52.986;6.282;2024-03-08T04:24:06;0.20;99.90
51825;DHT22;37879;52.986;6.282;2024-03-08T04:26:32;0.20;99.90
51825;DHT22;37879;52.986;6.282;2024-03-08T04:28:57;0.20;99.90
51825;DHT22;37879;52.986;6.282;2024-03-08T04:31:23;0.20;99.90
51825;DHT22;37879;52.986;6.282;2024-03-08T04:36:14;0.10;99.90
51825;DHT22;37879;52.986;6.282;2024-03-08T04:38:40;1.40;99.90
51825;DHT22;37879;52.986;6.282;2024-03-08T04:41:07;0.10;99.90
51825;DHT22;37879;52.986;6.282;2024-03-08T04:43:33;0.20;99.90
51825;DHT22;37879;52.986;6.282;2024-03-08T04:45:59;0.20;99.90
51825;DHT22;37879;52.986;6.282;2024-03-08T04:48:25;0.20;99.90
51825;DHT22;37879;52.986;6.282;2024-03-08T04:50:53;0.10;99.90
51825;DHT22;37879;52.986;6.282;2024-03-08T04:53:19;0.10;99.90
51825;DHT22;37879;52.986;6.282;2024-03-08T04:55:45;0.10;99.90
51825;DHT22;37879;52.986;6.282;2024-03-08T04:58:11;0.40;99.90
51825;DHT22;37879;52.986;6.282;2024-03-08T05:00:36;0.10;99.90
51825;DHT22;37879;52.986;6.282;2024-03-08T05:03:02;0.00;99.90
51825;DHT22;37879;52.986;6.282;2024-03-08T05:05:28;0.10;99.90
51825;DHT22;37879;52.986;6.282;2024-03-08T05:07:54;0.00;99.90
51825;DHT22;37879;52.986;6.282;2024-03-08T05:15:12;0.00;99.90
51825;DHT22;37879;52.986;6.282;2024-03-08T05:17:38;-0.10;99.90
51825;DHT22;37879;52.986;6.282;2024-03-08T05:20:06;-0.10;99.90
51825;DHT22;37879;52.986;6.282;2024-03-08T05:22:34;0.10;99.90
51825;DHT22;37879;52.986;6.282;2024-03-08T05:24:59;-0.10;99.90
51825;DHT22;37879;52.986;6.282;2024-03-08T05:27:25;-0.20;99.90
51825;DHT22;37879;52.986;6.282;2024-03-08T05:29:51;0.00;99.90
51825;DHT22;37879;52.986;6.282;2024-03-08T05:32:16;-0.10;99.90
51825;DHT22;37879;52.986;6.282;2024-03-08T05:34:42;-0.20;99.90
51825;DHT22;37879;52.986;6.282;2024-03-08T05:37:09;-0.10;99.90
51825;DHT22;37879;52.986;6.282;2024-03-08T05:39:36;-0.10;99.90
51825;DHT22;37879;52.986;6.282;2024-03-08T05:42:02;-0.20;99.90
51825;DHT22;37879;52.986;6.282;2024-03-08T05:44:28;-0.20;99.90
51825;DHT22;37879;52.986;6.282;2024-03-08T05:46:56;-0.30;99.90
51825;DHT22;37879;52.986;6.282;2024-03-08T05:49:22;0.90;99.90
51825;DHT22;37879;52.986;6.282;2024-03-08T05:51:47;-0.10;99.90
51825;DHT22;37879;52.986;6.282;2024-03-08T05:54:13;-0.10;99.90
51825;DHT22;37879;52.986;6.282;2024-03-08T05:56:40;-0.20;99.90
51825;DHT22;37879;52.986;6.282;2024-03-08T05:59:09;0.50;99.90
51825;DHT22;37879;52.986;6.282;2024-03-08T06:01:35;-0.10;99.90
51825;DHT22;37879;52.986;6.282;2024-03-08T06:04:03;-0.20;99.90
51825;DHT22;37879;52.986;6.282;2024-03-08T06:06:29;-0.10;99.90
51825;DHT22;37879;52.986;6.282;2024-03-08T06:08:55;-0.10;99.90
51825;DHT22;37879;52.986;6.282;2024-03-08T06:11:25;-0.10;99.90
51825;DHT22;37879;52.986;6.282;2024-03-08T06:13:52;0.60;99.90
51825;DHT22;37879;52.986;6.282;2024-03-08T06:16:25;0.90;99.90
51825;DHT22;37879;52.986;6.282;2024-03-08T06:18:57;-0.10;99.90
51825;DHT22;37879;52.986;6.282;2024-03-08T06:21:24;-0.10;99.90
51825;DHT22;37879;52.986;6.282;2024-03-08T06:23:54;-0.10;99.90
51825;DHT22;37879;52.986;6.282;2024-03-08T06:26:21;0.00;99.90
51825;DHT22;37879;52.986;6.282;2024-03-08T06:28:48;-0.10;99.90
51825;DHT22;37879;52.986;6.282;2024-03-08T06:31:13;-0.10;99.90
51825;DHT22;37879;52.986;6.282;2024-03-08T06:33:40;-0.10;99.90
51825;DHT22;37879;52.986;6.282;2024-03-08T06:36:06;-0.20;99.90
51825;DHT22;37879;52.986;6.282;2024-03-08T06:38:32;-0.10;99.90
51825;DHT22;37879;52.986;6.282;2024-03-08T06:40:57;-0.10;99.90
51825;DHT22;37879;52.986;6.282;2024-03-08T06:43:23;-0.10;99.90
51825;DHT22;37879;52.986;6.282;2024-03-08T06:45:55;-0.10;99.90
51825;DHT22;37879;52.986;6.282;2024-03-08T06:48:21;-0.10;99.90
51825;DHT22;37879;52.986;6.282;2024-03-08T06:50:47;0.00;99.90
51825;DHT22;37879;52.986;6.282;2024-03-08T06:53:13;0.00;99.90
51825;DHT22;37879;52.986;6.282;2024-03-08T06:55:39;-0.70;99.90
51825;DHT22;37879;52.986;6.282;2024-03-08T06:58:05;0.10;99.90
51825;DHT22;37879;52.986;6.282;2024-03-08T07:00:32;0.20;99.90
51825;DHT22;37879;52.986;6.282;2024-03-08T07:02:58;0.20;99.90
51825;DHT22;37879;52.986;6.282;2024-03-08T07:05:28;0.30;99.90
51825;DHT22;37879;52.986;6.282;2024-03-08T07:07:54;0.50;99.90
51825;DHT22;37879;52.986;6.282;2024-03-08T07:10:21;0.40;99.90
51825;DHT22;37879;52.986;6.282;2024-03-08T07:12:49;0.30;99.90
51825;DHT22;37879;52.986;6.282;2024-03-08T07:17:41;0.50;99.90
51825;DHT22;37879;52.986;6.282;2024-03-08T07:20:10;0.50;99.90
51825;DHT22;37879;52.986;6.282;2024-03-08T07:22:38;0.50;99.90
51825;DHT22;37879;52.986;6.282;2024-03-08T07:25:07;0.50;99.90
51825;DHT22;37879;52.986;6.282;2024-03-08T07:27:33;0.70;99.90
51825;DHT22;37879;52.986;6.282;2024-03-08T07:30:05;1.10;99.90
51825;DHT22;37879;52.986;6.282;2024-03-08T07:32:31;0.80;99.90
51825;DHT22;37879;52.986;6.282;2024-03-08T07:34:57;0.70;99.90
51825;DHT22;37879;52.986;6.282;2024-03-08T07:37:24;0.90;99.90
51825;DHT22;37879;52.986;6.282;2024-03-08T07:39:49;2.50;99.90
51825;DHT22;37879;52.986;6.282;2024-03-08T07:42:15;0.90;99.90
51825;DHT22;37879;52.986;6.282;2024-03-08T07:44:42;1.00;99.90
51825;DHT22;37879;52.986;6.282;2024-03-08T07:47:08;1.00;99.90
51825;DHT22;37879;52.986;6.282;2024-03-08T07:49:35;3.10;99.90
51825;DHT22;37879;52.986;6.282;2024-03-08T07:52:06;1.20;99.90
51825;DHT22;37879;52.986;6.282;2024-03-08T07:54:33;1.20;99.90
51825;DHT22;37879;52.986;6.282;2024-03-08T07:57:00;1.70;99.90
51825;DHT22;37879;52.986;6.282;2024-03-08T07:59:28;1.30;99.90
51825;DHT22;37879;52.986;6.282;2024-03-08T08:01:54;1.40;99.90
51825;DHT22;37879;52.986;6.282;2024-03-08T08:04:20;1.40;99.90
51825;DHT22;37879;52.986;6.282;2024-03-08T08:06:50;1.50;99.90
51825;DHT22;37879;52.986;6.282;2024-03-08T08:09:16;1.50;99.90
51825;DHT22;37879;52.986;6.282;2024-03-08T08:11:54;1.60;99.90
51825;DHT22;37879;52.986;6.282;2024-03-08T08:14:23;2.50;99.90
51825;DHT22;37879;52.986;6.282;2024-03-08T08:16:48;1.60;99.90
51825;DHT22;37879;52.986;6.282;2024-03-08T08:19:18;1.70;99.90
51825;DHT22;37879;52.986;6.282;2024-03-08T08:21:44;1.80;99.90
51825;DHT22;37879;52.986;6.282;2024-03-08T08:24:09;1.90;99.90
51825;DHT22;37879;52.986;6.282;2024-03-08T08:26:36;1.90;99.90
51825;DHT22;37879;52.986;6.282;2024-03-08T08:29:02;2.00;99.90
51825;DHT22;37879;52.986;6.282;2024-03-08T08:31:27;3.40;99.90
51825;DHT22;37879;52.986;6.282;2024-03-08T08:33:53;2.20;99.90
51825;DHT22;37879;52.986;6.282;2024-03-08T08:36:24;2.30;99.90
51825;DHT22;37879;52.986;6.282;2024-03-08T08:38:50;2.50;99.90
51825;DHT22;37879;52.986;6.282;2024-03-08T08:41:15;2.50;99.90
51825;DHT22;37879;52.986;6.282;2024-03-08T08:43:43;2.50;99.90
51825;DHT22;37879;52.986;6.282;2024-03-08T08:46:11;2.60;99.90
51825;DHT22;37879;52.986;6.282;2024-03-08T08:48:39;2.60;99.90
51825;DHT22;37879;52.986;6.282;2024-03-08T08:51:13;2.90;99.90
51825;DHT22;37879;52.986;6.282;2024-03-08T08:53:39;3.50;99.90
51825;DHT22;37879;52.986;6.282;2024-03-08T08:56:11;2.80;99.90
51825;DHT22;37879;52.986;6.282;2024-03-08T08:58:42;2.90;99.90
51825;DHT22;37879;52.986;6.282;2024-03-08T09:01:11;2.90;99.90
51825;DHT22;37879;52.986;6.282;2024-03-08T09:03:39;2.90;99.90
51825;DHT22;37879;52.986;6.282;2024-03-08T09:06:12;4.40;99.90
51825;DHT22;37879;52.986;6.282;2024-03-08T09:08:42;3.00;99.90
51825;DHT22;37879;52.986;6.282;2024-03-08T09:11:09;3.00;99.90
51825;DHT22;37879;52.986;6.282;2024-03-08T09:13:35;3.10;99.90
51825;DHT22;37879;52.986;6.282;2024-03-08T09:16:02;3.10;99.90
51825;DHT22;37879;52.986;6.282;2024-03-08T09:18:28;3.20;99.90
51825;DHT22;37879;52.986;6.282;2024-03-08T09:20:54;3.20;99.90
51825;DHT22;37879;52.986;6.282;2024-03-08T09:23:20;3.30;99.90
51825;DHT22;37879;52.986;6.282;2024-03-08T09:25:46;3.30;99.90
51825;DHT22;37879;52.986;6.282;2024-03-08T09:28:12;3.30;99.90
51825;DHT22;37879;52.986;6.282;2024-03-08T09:30:38;3.30;99.90
51825;DHT22;37879;52.986;6.282;2024-03-08T09:33:05;3.30;99.90
51825;DHT22;37879;52.986;6.282;2024-03-08T09:35:31;3.40;99.90
51825;DHT22;37879;52.986;6.282;2024-03-08T09:37:57;3.40;99.90
51825;DHT22;37879;52.986;6.282;2024-03-08T09:40:22;3.50;99.90
51825;DHT22;37879;52.986;6.282;2024-03-08T09:42:49;3.60;99.90
51825;DHT22;37879;52.986;6.282;2024-03-08T09:45:17;3.60;99.90
51825;DHT22;37879;52.986;6.282;2024-03-08T09:47:44;3.60;99.90
51825;DHT22;37879;52.986;6.282;2024-03-08T09:50:10;3.60;99.90
51825;DHT22;37879;52.986;6.282;2024-03-08T09:52:41;3.60;99.90
51825;DHT22;37879;52.986;6.282;2024-03-08T09:55:09;3.70;99.90
51825;DHT22;37879;52.986;6.282;2024-03-08T09:57:37;3.70;99.90
51825;DHT22;37879;52.986;6.282;2024-03-08T10:00:04;3.70;99.90
51825;DHT22;37879;52.986;6.282;2024-03-08T10:02:47;3.80;99.90
51825;DHT22;37879;52.986;6.282;2024-03-08T10:05:13;3.70;99.90
51825;DHT22;37879;52.986;6.282;2024-03-08T10:07:39;3.90;99.90
51825;DHT22;37879;52.986;6.282;2024-03-08T10:10:05;3.90;99.90
51825;DHT22;37879;52.986;6.282;2024-03-08T10:12:34;4.00;99.90
51825;DHT22;37879;52.986;6.282;2024-03-08T10:17:26;4.00;99.90
51825;DHT22;37879;52.986;6.282;2024-03-08T10:19:52;4.10;99.90
51825;DHT22;37879;52.986;6.282;2024-03-08T10:22:19;4.10;99.90
51825;DHT22;37879;52.986;6.282;2024-03-08T10:24:46;4.30;99.90
51825;DHT22;37879;52.986;6.282;2024-03-08T10:27:12;4.30;99.90
51825;DHT22;37879;52.986;6.282;2024-03-08T10:29:38;4.30;99.90
51825;DHT22;37879;52.986;6.282;2024-03-08T10:32:08;4.40;99.90
51825;DHT22;37879;52.986;6.282;2024-03-08T10:34:34;4.50;99.90
51825;DHT22;37879;52.986;6.282;2024-03-08T10:37:03;4.40;99.90
51825;DHT22;37879;52.986;6.282;2024-03-08T10:39:36;5.10;99.90
51825;DHT22;37879;52.986;6.282;2024-03-08T10:42:04;4.60;99.90
51825;DHT22;37879;52.986;6.282;2024-03-08T10:47:06;5.00;99.90
51825;DHT22;37879;52.986;6.282;2024-03-08T10:49:38;4.80;99.90
51825;DHT22;37879;52.986;6.282;2024-03-08T10:52:05;5.00;99.90
51825;DHT22;37879;52.986;6.282;2024-03-08T10:54:34;4.90;99.90
51825;DHT22;37879;52.986;6.282;2024-03-08T10:57:05;4.90;99.90
51825;DHT22;37879;52.986;6.282;2024-03-08T10:59:31;4.90;99.90
51825;DHT22;37879;52.986;6.282;2024-03-08T11:01:59;5.10;99.90
51825;DHT22;37879;52.986;6.282;2024-03-08T11:04:25;5.10;99.90
51825;DHT22;37879;52.986;6.282;2024-03-08T11:06:52;5.10;99.90
51825;DHT22;37879;52.986;6.282;2024-03-08T11:09:40;5.30;99.90
51825;DHT22;37879;52.986;6.282;2024-03-08T11:12:22;5.40;99.90
51825;DHT22;37879;52.986;6.282;2024-03-08T11:14:51;5.40;99.90
51825;DHT22;37879;52.986;6.282;2024-03-08T11:17:22;5.50;99.90
51825;DHT22;37879;52.986;6.282;2024-03-08T11:19:50;5.60;99.90
51825;DHT22;37879;52.986;6.282;2024-03-08T11:22:27;5.70;99.90
51825;DHT22;37879;52.986;6.282;2024-03-08T11:24:54;5.80;99.90
51825;DHT22;37879;52.986;6.282;2024-03-08T11:27:29;6.00;99.90
51825;DHT22;37879;52.986;6.282;2024-03-08T11:30:06;6.50;99.90
51825;DHT22;37879;52.986;6.282;2024-03-08T11:32:52;6.10;99.90
51825;DHT22;37879;52.986;6.282;2024-03-08T11:35:22;6.30;99.90
51825;DHT22;37879;52.986;6.282;2024-03-08T11:37:51;6.80;99.90
51825;DHT22;37879;52.986;6.282;2024-03-08T11:40:17;6.40;99.90
51825;DHT22;37879;52.986;6.282;2024-03-08T11:42:48;6.50;99.90
51825;DHT22;37879;52.986;6.282;2024-03-08T11:45:17;6.60;99.90
51825;DHT22;37879;52.986;6.282;2024-03-08T11:47:44;6.70;99.90
51825;DHT22;37879;52.986;6.282;2024-03-08T11:50:12;6.80;99.90
51825;DHT22;37879;52.986;6.282;2024-03-08T11:52:38;6.90;99.90
51825;DHT22;37879;52.986;6.282;2024-03-08T11:55:04;7.10;99.90
51825;DHT22;37879;52.986;6.282;2024-03-08T11:57:30;7.10;99.90
51825;DHT22;37879;52.986;6.282;2024-03-08T11:59:58;8.20;99.90
51825;DHT22;37879;52.986;6.282;2024-03-08T12:02:24;7.20;99.90
51825;DHT22;37879;52.986;6.282;2024-03-08T12:04:57;7.60;99.90
51825;DHT22;37879;52.986;6.282;2024-03-08T12:07:25;7.40;99.90
51825;DHT22;37879;52.986;6.282;2024-03-08T12:12:49;7.40;99.90
51825;DHT22;37879;52.986;6.282;2024-03-08T12:15:17;7.50;99.90
51825;DHT22;37879;52.986;6.282;2024-03-08T12:17:44;7.90;99.90
51825;DHT22;37879;52.986;6.282;2024-03-08T12:20:21;7.50;99.90
51825;DHT22;37879;52.986;6.282;2024-03-08T12:22:47;7.60;99.90
51825;DHT22;37879;52.986;6.282;2024-03-08T12:25:14;7.60;99.90
51825;DHT22;37879;52.986;6.282;2024-03-08T12:27:41;7.60;99.90
51825;DHT22;37879;52.986;6.282;2024-03-08T12:30:21;7.60;99.90
51825;DHT22;37879;52.986;6.282;2024-03-08T12:35:25;7.80;99.90
51825;DHT22;37879;52.986;6.282;2024-03-08T12:37:59;7.80;99.90
51825;DHT22;37879;52.986;6.282;2024-03-08T12:40:29;7.90;99.90
51825;DHT22;37879;52.986;6.282;2024-03-08T12:42:57;8.00;99.90
51825;DHT22;37879;52.986;6.282;2024-03-08T12:45:23;8.00;99.90
51825;DHT22;37879;52.986;6.282;2024-03-08T12:47:53;8.10;99.90
51825;DHT22;37879;52.986;6.282;2024-03-08T12:50:23;8.20;99.90
51825;DHT22;37879;52.986;6.282;2024-03-08T12:52:50;8.40;99.90
51825;DHT22;37879;52.986;6.282;2024-03-08T12:55:16;8.20;99.90
51825;DHT22;37879;52.986;6.282;2024-03-08T12:57:43;8.20;99.90
51825;DHT22;37879;52.986;6.282;2024-03-08T13:00:11;8.30;99.90
51825;DHT22;37879;52.986;6.282;2024-03-08T13:02:47;8.30;99.90
51825;DHT22;37879;52.986;6.282;2024-03-08T13:05:13;8.30;99.90
51825;DHT22;37879;52.986;6.282;2024-03-08T13:07:41;8.40;99.90
51825;DHT22;37879;52.986;6.282;2024-03-08T13:10:10;8.40;99.90
51825;DHT22;37879;52.986;6.282;2024-03-08T13:12:40;8.40;99.90
51825;DHT22;37879;52.986;6.282;2024-03-08T13:15:07;8.40;99.90
51825;DHT22;37879;52.986;6.282;2024-03-08T13:17:34;8.50;99.90
51825;DHT22;37879;52.986;6.282;2024-03-08T13:20:00;8.50;99.90
51825;DHT22;37879;52.986;6.282;2024-03-08T13:22:26;8.50;99.90
51825;DHT22;37879;52.986;6.282;2024-03-08T13:24:53;8.50;99.90
51825;DHT22;37879;52.986;6.282;2024-03-08T13:27:18;9.20;99.90
51825;DHT22;37879;52.986;6.282;2024-03-08T13:29:50;8.80;99.90
51825;DHT22;37879;52.986;6.282;2024-03-08T13:32:16;8.70;99.90
51825;DHT22;37879;52.986;6.282;2024-03-08T13:34:45;8.70;99.90
51825;DHT22;37879;52.986;6.282;2024-03-08T13:37:13;8.70;99.90
51825;DHT22;37879;52.986;6.282;2024-03-08T13:39:41;8.60;99.90
51825;DHT22;37879;52.986;6.282;2024-03-08T13:42:13;8.70;99.90
51825;DHT22;37879;52.986;6.282;2024-03-08T13:44:44;8.70;99.90
51825;DHT22;37879;52.986;6.282;2024-03-08T13:47:14;8.70;99.90
51825;DHT22;37879;52.986;6.282;2024-03-08T13:49:40;8.80;99.90
51825;DHT22;37879;52.986;6.282;2024-03-08T13:52:06;8.80;99.90
51825;DHT22;37879;52.986;6.282;2024-03-08T13:54:34;8.80;99.90
51825;DHT22;37879;52.986;6.282;2024-03-08T13:57:00;8.80;99.90
51825;DHT22;37879;52.986;6.282;2024-03-08T13:59:32;8.90;99.90
51825;DHT22;37879;52.986;6.282;2024-03-08T14:01:59;8.90;99.90
51825;DHT22;37879;52.986;6.282;2024-03-08T14:04:26;8.90;99.90
51825;DHT22;37879;52.986;6.282;2024-03-08T14:06:52;8.90;99.90
51825;DHT22;37879;52.986;6.282;2024-03-08T14:09:23;9.00;99.90
51825;DHT22;37879;52.986;6.282;2024-03-08T14:11:51;9.00;99.90
51825;DHT22;37879;52.986;6.282;2024-03-08T14:14:20;9.10;99.90
51825;DHT22;37879;52.986;6.282;2024-03-08T14:16:47;9.00;99.90
51825;DHT22;37879;52.986;6.282;2024-03-08T14:19:13;9.00;99.90
51825;DHT22;37879;52.986;6.282;2024-03-08T14:21:40;9.10;99.90
51825;DHT22;37879;52.986;6.282;2024-03-08T14:24:07;9.30;99.90
51825;DHT22;37879;52.986;6.282;2024-03-08T14:26:33;9.10;99.90
51825;DHT22;37879;52.986;6.282;2024-03-08T14:28:59;9.00;99.90
51825;DHT22;37879;52.986;6.282;2024-03-08T14:31:25;9.00;99.90
51825;DHT22;37879;52.986;6.282;2024-03-08T14:33:52;9.00;99.90
51825;DHT22;37879;52.986;6.282;2024-03-08T14:36:19;9.00;99.90
51825;DHT22;37879;52.986;6.282;2024-03-08T14:38:48;9.00;99.90
51825;DHT22;37879;52.986;6.282;2024-03-08T14:41:13;9.00;99.90
51825;DHT22;37879;52.986;6.282;2024-03-08T14:43:45;8.90;99.90
51825;DHT22;37879;52.986;6.282;2024-03-08T14:46:11;8.90;99.90
51825;DHT22;37879;52.986;6.282;2024-03-08T14:48:46;8.90;99.90
51825;DHT22;37879;52.986;6.282;2024-03-08T14:51:13;8.90;99.90
51825;DHT22;37879;52.986;6.282;2024-03-08T14:53:43;8.80;99.90
51825;DHT22;37879;52.986;6.282;2024-03-08T14:56:11;8.80;99.90
51825;DHT22;37879;52.986;6.282;2024-03-08T14:58:42;8.70;99.90
51825;DHT22;37879;52.986;6.282;2024-03-08T15:01:12;8.70;99.90
51825;DHT22;37879;52.986;6.282;2024-03-08T15:03:41;8.60;99.90
51825;DHT22;37879;52.986;6.282;2024-03-08T15:06:08;8.60;99.90
51825;DHT22;37879;52.986;6.282;2024-03-08T15:08:38;8.50;99.90
51825;DHT22;37879;52.986;6.282;2024-03-08T15:11:05;8.50;99.90
51825;DHT22;37879;52.986;6.282;2024-03-08T15:13:35;8.50;99.90
51825;DHT22;37879;52.986;6.282;2024-03-08T15:16:10;8.50;99.90
51825;DHT22;37879;52.986;6.282;2024-03-08T15:18:46;8.40;99.90
51825;DHT22;37879;52.986;6.282;2024-03-08T15:21:36;8.40;99.90
51825;DHT22;37879;52.986;6.282;2024-03-08T15:24:24;8.40;99.90
51825;DHT22;37879;52.986;6.282;2024-03-08T15:26:59;8.30;99.90
51825;DHT22;37879;52.986;6.282;2024-03-08T15:29:33;8.30;99.90
51825;DHT22;37879;52.986;6.282;2024-03-08T15:32:04;8.40;99.90
51825;DHT22;37879;52.986;6.282;2024-03-08T15:34:32;8.30;99.90
51825;DHT22;37879;52.986;6.282;2024-03-08T15:37:03;8.30;99.90
51825;DHT22;37879;52.986;6.282;2024-03-08T15:43:03;8.20;99.90
51825;DHT22;37879;52.986;6.282;2024-03-08T15:45:29;8.30;99.90
51825;DHT22;37879;52.986;6.282;2024-03-08T15:47:58;8.10;99.90
51825;DHT22;37879;52.986;6.282;2024-03-08T15:50:24;8.10;99.90
51825;DHT22;37879;52.986;6.282;2024-03-08T15:52:50;8.00;99.90
51825;DHT22;37879;52.986;6.282;2024-03-08T15:55:21;8.00;99.90
51825;DHT22;37879;52.986;6.282;2024-03-08T15:57:52;7.90;99.90
51825;DHT22;37879;52.986;6.282;2024-03-08T16:00:20;8.00;99.90
51825;DHT22;37879;52.986;6.282;2024-03-08T16:03:04;7.90;99.90
51825;DHT22;37879;52.986;6.282;2024-03-08T16:05:34;7.90;99.90
51825;DHT22;37879;52.986;6.282;2024-03-08T16:08:00;7.90;99.90
51825;DHT22;37879;52.986;6.282;2024-03-08T16:10:26;7.90;99.90
51825;DHT22;37879;52.986;6.282;2024-03-08T16:12:57;7.90;99.90
51825;DHT22;37879;52.986;6.282;2024-03-08T16:15:23;7.90;99.90
51825;DHT22;37879;52.986;6.282;2024-03-08T16:17:48;7.90;99.90